METAR v bližini

 

LJMB - Maribor Edvarda Rusjana, Slovenia
Oddaljenost od postaje: SV 30,9km
Podatki zajeti: 22/07/2019 03:30
Meglice, Delno oblačno
Meglice, Delno oblačno
 Veter iz smeri SSZ
Veter: SSZ 4 km/h
Temperatura: 18°C
Rosišče: 17°C
Vlažnost: 94%
Tlak: 1023 hPa
Stanje: Meglice
Oblačnost: Delno oblačno
Vidljivost: 4 km
2019/07/22 01:30 LJMB 220130Z AUTO 34002KT 4300 BR NSC 18/17 Q1023
LJLJ - Ljubljana Brnik, Slovenia
Oddaljenost od postaje: S 103km
Podatki zajeti: 22/07/2019 03:30
Megla po nižinah, Delno oblačno
Megla po nižinah, Delno oblačno
 Veter iz smeri spremenljiv
Veter: spremenljiv 2 km/h
Temperatura: 17°C
Rosišče: 17°C
Vlažnost: 100%
Tlak: 1024 hPa
Stanje: Megla po nižinah
Oblačnost: Delno oblačno
Vidljivost: 10 km
Podrobnosti o oblakih: Rahlo oblačno 122 m
Delno oblačno 3658 m
2019/07/22 01:30 LJLJ 220130Z VRB01KT 9999 MIFG FEW004 SCT120 17/17 Q1024 NOSIG
 
LJPZ - Portorož, Slovenia
Oddaljenost od postaje: SSZ 224km
Podatki zajeti: 22/07/2019 03:30
Jasno
Jasno
 Veter iz smeri VJV
Veter: VJV 7 km/h
Temperatura: 21°C
Rosišče: 19°C
Vlažnost: 88%
Tlak: 1020 hPa
Oblačnost: Jasno
Vidljivost: 10 km
2019/07/22 01:30 LJPZ 220130Z AUTO 12004KT 9999 NCD 21/19 Q1020
LJCE - Cerklje, Slovenia
Oddaljenost od postaje: VSV 83,9km
Podatki zajeti: 22/07/2019 03:30
Jasno
Jasno
 Veter iz smeri calm
Veter: Mirno
Temperatura: 19°C
Rosišče: 18°C
Vlažnost: 94%
Tlak: 1023 hPa
Oblačnost: Jasno
Vidljivost: 10 km
2019/07/22 01:30 LJCE 220130Z AUTO 00000KT 9999 NCD 19/18 Q1023
 
LOWG - Graz, Austria
Oddaljenost od postaje: SSZ 99,6km
Podatki zajeti: 22/07/2019 03:50
Megla v pasovih, Pretežno oblačno
Megla v pasovih, Pretežno oblačno
 Veter iz smeri spremenljiv
Veter: spremenljiv 2 km/h
Temperatura: 16°C
Rosišče: 16°C
Vlažnost: 100%
Tlak: 1024 hPa
Stanje: Patches of Fog
Oblačnost: Pretežno oblačno
Vidljivost: 1 km
Podrobnosti o oblakih: Rahlo oblačno 0 m
Pretežno oblačno 61 m
2019/07/22 01:50 LOWG 220150Z AUTO VRB01KT 0500 R17/P1500D R35/0650D BCFG FEW000 BKN002 16/16 Q1024
LOWK - Klagenfurt, Austria
Oddaljenost od postaje: SZ 121km
Podatki zajeti: 22/07/2019 03:50
Delno oblačno
Delno oblačno
 Veter iz smeri SZ
Veter: SZ 7 km/h
Temperatura: 18°C
Rosišče: 16°C
Vlažnost: 88%
Tlak: 1025 hPa
Oblačnost: Delno oblačno
Vidljivost: 10 km
Podrobnosti o oblakih: Delno oblačno 3353 m
2019/07/22 01:50 LOWK 220150Z AUTO 32004KT 9999 SCT110 18/16 Q1025
 
LDRI - Rijeka, Croatia
Oddaljenost od postaje: SZ 243km
Podatki zajeti: 22/07/2019 03:30
Jasno
Jasno
 Veter iz smeri spremenljiv
Veter: spremenljiv 4 km/h
Temperatura: 23°C
Rosišče: 18°C
Vlažnost: 74%
Tlak: 1021 hPa
Stanje: Jasno
Vidljivost: večja od 10 km
2019/07/22 01:30 LDRI 220130Z VRB02KT CAVOK 23/18 Q1021
LIPQ - Ronchi, Italy
Oddaljenost od postaje: VJV 224km
Podatki zajeti: 22/07/2019 03:50
Jasno
Jasno
 Veter iz smeri SSV
Veter: SSV 9 km/h
Temperatura: 21°C
Rosišče: 20°C
Vlažnost: 94%
Tlak: 1020 hPa
Oblačnost: Jasno
Vidljivost: 10 km
2019/07/22 01:50 LIPQ 220150Z AUTO 02005KT 010V070 9999 NCD 21/20 Q1020
 
LDZA - Zagreb, Croatia
Oddaljenost od postaje: JJV 143km
Podatki zajeti: 22/07/2019 03:30
Jasno
Jasno
 Veter iz smeri JZ
Veter: JZ 6 km/h
Temperatura: 20°C
Rosišče: 18°C
Vlažnost: 88%
Tlak: 1022 hPa
Stanje: Jasno
Vidljivost: večja od 10 km
2019/07/22 01:30 LDZA 220130Z 22003KT 190V250 CAVOK 20/18 Q1022 NOSIG
LIVT - Trieste, Italy
Oddaljenost od postaje: ZSZ 250km
Podatki zajeti: 22/07/2019 02:55
Jasno
Jasno
 Veter iz smeri VSV
Veter: VSV 20 km/h, Sunek vetra: 39 km/h
Temperatura: 26°C
Rosišče: 20°C
Vlažnost: 70%
Tlak: 1020 hPa
Stanje: Jasno
Vidljivost: večja od 10 km
2019/07/22 00:55 LIVT 220055Z 06011G21KT CAVOK 26/20 Q1020 RMK SKC QUK / QUL / VIS MAR 20 KM VIS MIN 9999
 
LIPA - Aviano, Italy
Oddaljenost od postaje: S 310km
Podatki zajeti: 20/07/2019 21:55
Ni posodobljen
Jasno
Jasno
 Veter iz smeri VSV
Veter: VSV 4 km/h
Temperatura: 25°C
Rosišče: 20°C
Vlažnost: 74%
Tlak: 1018 hPa
Stanje: Jasno
Vidljivost: večja od 10 km
2019/07/20 19:55 LIPA 201955Z 07002KT CAVOK 25/20 Q1018 RMK SKC VIS MIN 9999 WIND THR05 /////KT WIND THR23 /////KT A3008 BLU
LDPL - Pula, Croatia
Oddaljenost od postaje: SSV 304km
Podatki zajeti: 22/07/2019 03:30
Jasno
Jasno
 Veter iz smeri SV
Veter: SV 6 km/h
Temperatura: 19°C
Rosišče: 17°C
Vlažnost: 88%
Tlak: 1020 hPa
Stanje: Jasno
Vidljivost: večja od 10 km
2019/07/22 01:30 LDPL 220130Z 05003KT CAVOK 19/17 Q1020